createdAt,value
2022-12-24T00:01:10.759Z,96417.34
2022-12-24T00:03:39.235Z,96415.50
2022-12-24T00:06:07.744Z,96418.19
2022-12-24T00:08:35.951Z,96412.81
2022-12-24T00:11:04.000Z,96414.53
2022-12-24T00:13:33.505Z,96426.97
2022-12-24T00:16:01.551Z,96424.41
2022-12-24T00:18:29.662Z,96435.13
2022-12-24T00:20:57.733Z,96437.81
2022-12-24T00:23:25.892Z,96435.00
2022-12-24T00:25:54.004Z,96431.59
2022-12-24T00:28:22.531Z,96430.75
2022-12-24T00:30:52.020Z,96427.09
2022-12-24T00:33:24.415Z,96429.91
2022-12-24T00:35:53.471Z,96439.78
2022-12-24T00:38:21.624Z,96442.31
2022-12-24T00:40:49.796Z,96444.19
2022-12-24T00:43:17.823Z,96455.00
2022-12-24T00:45:46.043Z,96455.88
2022-12-24T00:48:15.554Z,96451.50
2022-12-24T00:50:43.695Z,96439.91
2022-12-24T00:53:11.794Z,96443.44
2022-12-24T00:55:39.978Z,96461.38
2022-12-24T00:58:08.148Z,96467.59
2022-12-24T01:00:36.227Z,96473.56
2022-12-24T01:03:04.438Z,96471.84
2022-12-24T01:05:32.967Z,96456.00
2022-12-24T01:08:01.180Z,96468.56
2022-12-24T01:10:29.245Z,96456.97
2022-12-24T01:12:57.360Z,96459.63
2022-12-24T01:15:25.435Z,96465.00
2022-12-24T01:17:53.539Z,96452.59
2022-12-24T01:20:21.656Z,96457.94
2022-12-24T01:22:51.206Z,96484.78
2022-12-24T01:25:19.541Z,96483.91
2022-12-24T01:27:47.622Z,96497.34
2022-12-24T01:30:16.136Z,96501.00
2022-12-24T01:32:44.215Z,96479.53
2022-12-24T01:35:12.616Z,96500.16
2022-12-24T01:37:40.704Z,96489.41
2022-12-24T01:40:29.915Z,96493.06
2022-12-24T01:43:15.062Z,96500.28
2022-12-24T01:45:49.059Z,96508.31
2022-12-24T01:48:23.466Z,96505.63
2022-12-24T01:50:52.598Z,96511.97
2022-12-24T01:53:20.684Z,96512.94
2022-12-24T01:55:50.195Z,96518.31
2022-12-24T01:58:20.088Z,96528.19
2022-12-24T02:00:48.258Z,96529.88
2022-12-24T02:03:16.343Z,96536.09
2022-12-24T02:05:47.769Z,96527.09
2022-12-24T02:08:16.052Z,96539.66
2022-12-24T02:10:44.172Z,96533.53
2022-12-24T02:13:13.667Z,96544.28
2022-12-24T02:15:49.647Z,96551.34
2022-12-24T02:18:22.133Z,96544.28
2022-12-24T02:21:16.804Z,96542.56
2022-12-24T02:24:13.347Z,96546.22
2022-12-24T02:26:54.590Z,96535.50
2022-12-24T02:29:34.819Z,96538.31
2022-12-24T02:32:05.271Z,96537.44
2022-12-24T02:34:34.383Z,96537.44
2022-12-24T02:37:05.248Z,96545.47
2022-12-24T02:39:37.288Z,96546.44
2022-12-24T02:42:08.249Z,96556.34
2022-12-24T02:44:39.830Z,96559.13
2022-12-24T02:47:09.418Z,96561.91
2022-12-24T02:49:37.659Z,96554.63
2022-12-24T02:52:05.930Z,96558.16
2022-12-24T02:54:34.217Z,96561.78
2022-12-24T02:57:08.433Z,96549.25
2022-12-24T02:59:59.203Z,96568.16
2022-12-24T03:02:36.143Z,96556.56
2022-12-24T03:05:10.301Z,96566.41
2022-12-24T03:07:39.440Z,96562.91
2022-12-24T03:10:16.770Z,96568.16
2022-12-24T03:12:46.312Z,96561.06
2022-12-24T03:15:16.000Z,96558.38
2022-12-24T03:17:46.598Z,96587.06
2022-12-24T03:20:16.069Z,96599.59
2022-12-24T03:22:44.175Z,96571.03
2022-12-24T03:25:12.287Z,96579.97
2022-12-24T03:27:40.592Z,96576.41
2022-12-24T03:30:11.431Z,96568.50
2022-12-24T03:32:39.552Z,96571.91
2022-12-24T03:35:10.252Z,96575.59
2022-12-24T03:37:38.535Z,96567.66
2022-12-24T03:40:07.650Z,96578.38
2022-12-24T03:42:35.776Z,96572.16
2022-12-24T03:45:04.219Z,96564.09
2022-12-24T03:47:32.368Z,96577.53
2022-12-24T03:50:00.496Z,96580.19
2022-12-24T03:52:30.066Z,96586.53
2022-12-24T03:54:58.228Z,96592.75
2022-12-24T03:57:26.625Z,96603.47
2022-12-24T03:59:54.770Z,96621.41
2022-12-24T04:02:22.990Z,96604.47
2022-12-24T04:04:51.184Z,96614.34
2022-12-24T04:07:19.232Z,96610.78
2022-12-24T04:09:48.727Z,96614.47
2022-12-24T04:12:16.810Z,96622.50
2022-12-24T04:14:45.056Z,96643.97
2022-12-24T04:17:13.164Z,96638.59
2022-12-24T04:19:41.282Z,96632.38
2022-12-24T04:22:09.361Z,96639.56
2022-12-24T04:24:37.443Z,96628.81
2022-12-24T04:27:06.878Z,96629.81
2022-12-24T04:29:34.955Z,96621.75
2022-12-24T04:32:03.200Z,96627.22
2022-12-24T04:34:31.334Z,96628.06
2022-12-24T04:36:59.420Z,96611.13
2022-12-24T04:39:27.536Z,96626.34
2022-12-24T04:41:55.560Z,96620.13
2022-12-24T04:44:25.111Z,96617.44
2022-12-24T04:46:53.218Z,96642.44
2022-12-24T04:49:21.279Z,96631.72
2022-12-24T04:51:49.360Z,96639.75
2022-12-24T04:54:17.442Z,96627.31
2022-12-24T04:56:46.812Z,96640.84
2022-12-24T04:59:14.954Z,96629.25
2022-12-24T05:01:44.527Z,96629.13
2022-12-24T05:04:12.780Z,96671.19
2022-12-24T05:06:40.864Z,96665.19
2022-12-24T05:09:09.024Z,96677.84
2022-12-24T05:11:37.052Z,96675.28
2022-12-24T05:14:05.278Z,96687.00
2022-12-24T05:16:33.392Z,96667.34
2022-12-24T05:19:03.014Z,96685.38
2022-12-24T05:21:31.151Z,96655.03
2022-12-24T05:24:16.455Z,96682.81
2022-12-24T05:26:45.693Z,96673.16
2022-12-24T05:29:13.746Z,96694.50
2022-12-24T05:31:42.077Z,96686.56
2022-12-24T05:34:11.749Z,96708.13
2022-12-24T05:36:39.944Z,96701.91
2022-12-24T05:39:13.414Z,96696.44
2022-12-24T05:41:43.432Z,96715.00
2022-12-24T05:44:11.519Z,96714.88
2022-12-24T05:46:39.837Z,96711.22
2022-12-24T05:49:07.968Z,96720.13
2022-12-24T05:51:37.520Z,96703.16
2022-12-24T05:54:06.243Z,96705.00
2022-12-24T05:56:34.367Z,96705.00
2022-12-24T05:59:02.520Z,96721.19
2022-12-24T06:01:30.682Z,96715.00
2022-12-24T06:03:58.927Z,96713.25
2022-12-24T06:06:27.882Z,96727.44
2022-12-24T06:08:57.459Z,96731.09
2022-12-24T06:11:26.566Z,96719.63
2022-12-24T06:13:54.930Z,96726.06
2022-12-24T06:16:23.422Z,96715.22
2022-12-24T06:18:51.548Z,96727.78
2022-12-24T06:21:19.631Z,96710.72
2022-12-24T06:23:47.824Z,96728.53
2022-12-24T06:26:19.298Z,96739.13
2022-12-24T06:28:47.440Z,96738.50
2022-12-24T06:31:16.692Z,96732.41
2022-12-24T06:33:44.914Z,96725.94
2022-12-24T06:36:17.672Z,96743.75
2022-12-24T06:38:46.370Z,96737.41
2022-12-24T06:41:14.473Z,96747.94
2022-12-24T06:43:46.631Z,96737.84
2022-12-24T06:46:14.963Z,96757.34
2022-12-24T06:48:43.970Z,96747.19
2022-12-24T06:51:12.146Z,96765.59
2022-12-24T06:53:40.492Z,96738.47
2022-12-24T06:56:09.326Z,96736.75
2022-12-24T06:58:37.397Z,96743.94
2022-12-24T07:01:08.686Z,96743.63
2022-12-24T07:03:37.326Z,96768.50
2022-12-24T07:06:05.851Z,96759.59
2022-12-24T07:08:36.313Z,96764.97
2022-12-24T07:11:04.570Z,96767.75
2022-12-24T07:13:34.373Z,96751.53
2022-12-24T07:16:03.439Z,96761.31
2022-12-24T07:18:33.052Z,96784.59
2022-12-24T07:21:01.247Z,96809.69
2022-12-24T07:23:29.295Z,96806.50
2022-12-24T07:25:57.582Z,96810.00
2022-12-24T07:28:28.018Z,96808.94
2022-12-24T07:30:56.821Z,96811.50
2022-12-24T07:33:25.093Z,96806.06
2022-12-24T07:36:01.306Z,96809.53
2022-12-24T07:38:29.590Z,96798.66
2022-12-24T07:40:57.856Z,96810.66
2022-12-24T07:43:26.015Z,96823.09
2022-12-24T07:45:56.351Z,96830.19
2022-12-24T07:48:24.555Z,96822.94
2022-12-24T07:50:52.647Z,96837.28
2022-12-24T07:53:22.284Z,96834.50
2022-12-24T07:55:50.610Z,96835.25
2022-12-24T07:58:18.906Z,96841.72
2022-12-24T08:00:46.972Z,96826.75
2022-12-24T08:03:17.534Z,96835.56
2022-12-24T08:05:46.010Z,96850.69
2022-12-24T08:08:14.150Z,96844.91
2022-12-24T08:10:43.819Z,96844.91
2022-12-24T08:13:11.916Z,96861.50
2022-12-24T08:15:40.166Z,96852.59
2022-12-24T08:18:08.300Z,96857.88
2022-12-24T08:20:38.273Z,96856.69
2022-12-24T08:23:06.649Z,96855.28
2022-12-24T08:25:34.761Z,96870.19
2022-12-24T08:28:04.379Z,96898.41
2022-12-24T08:30:32.532Z,96873.06
2022-12-24T08:33:00.660Z,96874.69
2022-12-24T08:35:28.826Z,96880.69
2022-12-24T08:37:56.884Z,96892.16
2022-12-24T08:40:25.171Z,96895.72
2022-12-24T08:42:53.347Z,96910.00
2022-12-24T08:45:22.944Z,96890.22
2022-12-24T08:47:51.113Z,96885.59
2022-12-24T08:50:19.263Z,96900.66
2022-12-24T08:52:47.547Z,96899.56
2022-12-24T08:55:15.630Z,96901.19
2022-12-24T08:57:43.813Z,96905.47
2022-12-24T09:00:13.819Z,96891.06
2022-12-24T09:02:43.397Z,96895.38
2022-12-24T09:05:11.610Z,96896.44
2022-12-24T09:07:39.670Z,96901.69
2022-12-24T09:10:09.076Z,96898.91
2022-12-24T09:12:37.132Z,96907.84
2022-12-24T09:15:08.130Z,96908.59
2022-12-24T09:17:36.439Z,96908.47
2022-12-24T09:20:07.043Z,96904.84
2022-12-24T09:22:35.827Z,96928.03
2022-12-24T09:25:04.846Z,96919.00
2022-12-24T09:27:33.084Z,96923.41
2022-12-24T09:30:01.164Z,96927.81
2022-12-24T09:32:29.319Z,96931.47
2022-12-24T09:34:57.439Z,96920.84
2022-12-24T09:37:27.046Z,96939.53
2022-12-24T09:39:55.210Z,96927.81
2022-12-24T09:42:32.643Z,96919.66
2022-12-24T09:45:04.161Z,96920.28
2022-12-24T09:47:34.779Z,96920.06
2022-12-24T09:50:04.037Z,96917.59
2022-12-24T09:52:35.062Z,96924.16
2022-12-24T09:55:06.735Z,96932.31
2022-12-24T09:57:37.019Z,96932.44
2022-12-24T10:00:06.354Z,96930.63
2022-12-24T10:02:38.033Z,96925.13
2022-12-24T10:05:07.989Z,96934.81
2022-12-24T10:07:39.353Z,96937.25
2022-12-24T10:10:14.272Z,96934.38
2022-12-24T10:12:49.322Z,96943.25
2022-12-24T10:15:22.019Z,96939.63
2022-12-24T10:17:57.863Z,96937.78
2022-12-24T10:20:37.100Z,96940.38
2022-12-24T10:23:09.114Z,96941.22
2022-12-24T10:25:39.152Z,96935.72
2022-12-24T10:28:13.874Z,96932.94
2022-12-24T10:30:41.995Z,96930.13
2022-12-24T10:33:15.825Z,96938.94
2022-12-24T10:35:45.777Z,96936.38
2022-12-24T10:38:15.360Z,96909.38
2022-12-24T10:40:44.943Z,96914.41
2022-12-24T10:43:15.479Z,96924.84
2022-12-24T10:45:47.592Z,96929.22
2022-12-24T10:48:20.835Z,96939.75
2022-12-24T10:50:54.178Z,96943.19
2022-12-24T10:53:26.522Z,96948.69
2022-12-24T10:56:02.993Z,96952.22
2022-12-24T10:58:31.079Z,96965.16
2022-12-24T11:00:59.275Z,96960.22
2022-12-24T11:03:31.170Z,96964.84
2022-12-24T11:06:07.607Z,96970.84
2022-12-24T11:08:37.144Z,96969.97
2022-12-24T11:11:06.543Z,96971.84
2022-12-24T11:13:38.060Z,96977.09
2022-12-24T11:16:08.671Z,96978.78
2022-12-24T11:18:38.138Z,96970.63
2022-12-24T11:21:06.634Z,96980.41
2022-12-24T11:23:36.099Z,96977.59
2022-12-24T11:26:04.266Z,96976.75
2022-12-24T11:28:34.761Z,96982.00
2022-12-24T11:31:05.634Z,96979.22
2022-12-24T11:33:33.954Z,96964.81
2022-12-24T11:36:03.598Z,96970.19
2022-12-24T11:38:32.788Z,96973.72
2022-12-24T11:41:07.089Z,96970.94
2022-12-24T11:43:47.076Z,96972.63
2022-12-24T11:46:23.463Z,96973.63
2022-12-24T11:49:08.206Z,96972.88
2022-12-24T11:51:36.610Z,96970.28
2022-12-24T11:54:07.944Z,96972.22
2022-12-24T11:56:38.972Z,96970.41
2022-12-24T11:59:18.643Z,96971.38
2022-12-24T12:01:52.053Z,96973.22
2022-12-24T12:04:21.977Z,96971.59
2022-12-24T12:06:51.291Z,96965.34
2022-12-24T12:09:22.271Z,96968.03
2022-12-24T12:11:53.262Z,96958.28
2022-12-24T12:14:23.055Z,96950.34
2022-12-24T12:17:04.572Z,96952.16
2022-12-24T12:19:35.907Z,96954.97
2022-12-24T12:22:05.533Z,96971.09
2022-12-24T12:24:35.935Z,96957.84
2022-12-24T12:27:09.221Z,96961.53
2022-12-24T12:29:38.173Z,96962.38
2022-12-24T12:32:08.597Z,96958.09
2022-12-24T12:34:39.135Z,96957.22
2022-12-24T12:37:14.475Z,96957.44
2022-12-24T12:39:43.136Z,96950.38
2022-12-24T12:42:15.913Z,96945.84
2022-12-24T12:44:50.956Z,96958.31
2022-12-24T12:47:40.668Z,96952.81
2022-12-24T12:50:12.344Z,96951.00
2022-12-24T12:52:48.493Z,96964.44
2022-12-24T12:55:25.274Z,96975.28
2022-12-24T12:57:56.648Z,96977.84
2022-12-24T13:00:24.870Z,96977.22
2022-12-24T13:03:10.769Z,96983.56
2022-12-24T13:05:50.801Z,96973.56
2022-12-24T13:08:34.881Z,96977.22
2022-12-24T13:11:07.792Z,96980.78
2022-12-24T13:13:54.083Z,96987.09
2022-12-24T13:16:43.856Z,96976.47
2022-12-24T13:19:19.756Z,96976.47
2022-12-24T13:21:49.030Z,96975.63
2022-12-24T13:24:18.576Z,96977.44
2022-12-24T13:27:04.963Z,96976.59
2022-12-24T13:29:42.128Z,96991.84
2022-12-24T13:32:39.119Z,97002.72
2022-12-24T13:35:35.121Z,97005.41
2022-12-24T13:38:43.521Z,97006.22
2022-12-24T13:41:57.567Z,97012.47
2022-12-24T13:44:33.908Z,97030.53
2022-12-24T13:47:31.635Z,97034.94
2022-12-24T13:50:00.314Z,97026.97
2022-12-24T13:52:30.203Z,97043.22
2022-12-24T13:55:12.788Z,97044.06
2022-12-24T13:57:41.876Z,97050.31
2022-12-24T14:00:26.387Z,97053.94
2022-12-24T14:02:58.682Z,97063.81
2022-12-24T14:05:35.859Z,97058.56
2022-12-24T14:08:05.427Z,97072.00
2022-12-24T14:10:38.186Z,97071.13
2022-12-24T14:13:09.994Z,97070.38
2022-12-24T14:16:05.647Z,97074.81
2022-12-24T14:18:39.691Z,97084.69
2022-12-24T14:21:08.272Z,97082.97
2022-12-24T14:23:45.679Z,97081.13
2022-12-24T14:26:16.809Z,97091.03
2022-12-24T14:28:47.436Z,97095.53
2022-12-24T14:31:17.173Z,97101.78
2022-12-24T14:33:46.715Z,97107.22
2022-12-24T14:36:15.861Z,97102.09
2022-12-24T14:38:44.701Z,97107.63
2022-12-24T14:41:21.191Z,97111.41
2022-12-24T14:43:53.189Z,97122.22
2022-12-24T14:46:25.031Z,97132.13
2022-12-24T14:48:56.078Z,97129.53
2022-12-24T14:51:29.197Z,97135.88
2022-12-24T14:54:08.171Z,97145.88
2022-12-24T14:56:36.291Z,97142.44
2022-12-24T14:59:15.541Z,97147.81
2022-12-24T15:01:43.748Z,97161.34
2022-12-24T15:04:19.486Z,97168.53
2022-12-24T15:06:49.438Z,97175.72
2022-12-24T15:09:19.986Z,97180.31
2022-12-24T15:11:48.301Z,97185.81
2022-12-24T15:14:16.371Z,97182.06
2022-12-24T15:16:44.621Z,97182.72
2022-12-24T15:19:15.418Z,97186.03
2022-12-24T15:21:44.947Z,97186.16
2022-12-24T15:24:25.361Z,97197.00
2022-12-24T15:26:53.482Z,97199.56
2022-12-24T15:29:23.426Z,97203.88
2022-12-24T15:31:54.507Z,97210.03
2022-12-24T15:34:27.563Z,97227.06
2022-12-24T15:37:06.573Z,97220.09
2022-12-24T15:39:34.706Z,97236.13
2022-12-24T15:42:14.857Z,97244.06
2022-12-24T15:44:45.785Z,97255.75
2022-12-24T15:47:17.214Z,97252.31
2022-12-24T15:49:45.772Z,97252.22
2022-12-24T15:52:16.347Z,97257.69
2022-12-24T15:54:52.137Z,97260.38
2022-12-24T15:57:25.495Z,97260.19
2022-12-24T15:59:54.446Z,97264.56
2022-12-24T16:02:38.683Z,97275.41
2022-12-24T16:05:20.363Z,97278.22
2022-12-24T16:08:09.054Z,97279.69
2022-12-24T16:10:39.586Z,97287.53
2022-12-24T16:13:15.113Z,97289.13
2022-12-24T16:15:48.035Z,97292.59
2022-12-24T16:18:21.035Z,97290.66
2022-12-24T16:20:50.056Z,97287.13
2022-12-24T16:23:20.677Z,97293.34
2022-12-24T16:25:48.784Z,97298.66
2022-12-24T16:28:22.182Z,97293.28
2022-12-24T16:30:51.341Z,97305.72
2022-12-24T16:33:20.282Z,97302.16
2022-12-24T16:35:48.423Z,97303.03
2022-12-24T16:38:16.883Z,97297.66
2022-12-24T16:40:46.412Z,97308.41
2022-12-24T16:43:31.858Z,97315.59
2022-12-24T16:46:01.703Z,97319.16
2022-12-24T16:48:29.961Z,97317.34
2022-12-24T16:50:58.022Z,97317.34
2022-12-24T16:53:26.154Z,97316.47
2022-12-24T16:55:55.632Z,97312.06
2022-12-24T16:58:23.802Z,97320.03
2022-12-24T17:00:51.836Z,97326.25
2022-12-24T17:03:20.025Z,97328.25
2022-12-24T17:05:48.267Z,97324.63
2022-12-24T17:08:16.387Z,97322.72
2022-12-24T17:10:53.283Z,97334.22
2022-12-24T17:13:22.850Z,97326.91
2022-12-24T17:15:51.000Z,97324.34
2022-12-24T17:18:19.226Z,97333.22
2022-12-24T17:20:47.372Z,97336.69
2022-12-24T17:23:15.558Z,97327.59
2022-12-24T17:25:43.730Z,97332.97
2022-12-24T17:28:11.846Z,97332.88
2022-12-24T17:30:42.349Z,97336.31
2022-12-24T17:33:14.560Z,97339.97
2022-12-24T17:35:43.200Z,97341.69
2022-12-24T17:38:11.234Z,97349.66
2022-12-24T17:40:39.402Z,97360.31
2022-12-24T17:43:07.480Z,97369.41
2022-12-24T17:45:35.635Z,97362.22
2022-12-24T17:48:05.608Z,97371.81
2022-12-24T17:50:33.809Z,97373.63
2022-12-24T17:53:01.936Z,97370.84
2022-12-24T17:55:30.103Z,97376.97
2022-12-24T17:57:59.324Z,97378.81
2022-12-24T18:00:32.775Z,97382.34
2022-12-24T18:03:01.635Z,97375.91
2022-12-24T18:05:31.228Z,97384.84
2022-12-24T18:07:59.406Z,97380.34
2022-12-24T18:10:28.311Z,97384.72
2022-12-24T18:12:56.536Z,97387.53
2022-12-24T18:15:24.600Z,97389.22
2022-12-24T18:17:53.575Z,97385.59
2022-12-24T18:20:21.760Z,97378.41
2022-12-24T18:22:51.312Z,97377.53
2022-12-24T18:25:20.224Z,97378.41
2022-12-24T18:27:48.385Z,97379.25
2022-12-24T18:30:20.496Z,97385.50
2022-12-24T18:32:52.417Z,97399.78
2022-12-24T18:35:22.592Z,97402.47
2022-12-24T18:37:52.193Z,97409.69
2022-12-24T18:40:20.620Z,97407.09
2022-12-24T18:42:48.837Z,97413.41
2022-12-24T18:45:17.138Z,97420.63
2022-12-24T18:47:45.272Z,97414.28
2022-12-24T18:50:13.363Z,97409.78
2022-12-24T18:52:41.540Z,97415.16
2022-12-24T18:55:12.175Z,97411.59
2022-12-24T18:57:40.389Z,97413.41
2022-12-24T19:00:09.603Z,97418.72
2022-12-24T19:02:37.821Z,97427.63
2022-12-24T19:05:06.668Z,97426.66
2022-12-24T19:07:34.827Z,97422.16
2022-12-24T19:10:02.894Z,97428.59
2022-12-24T19:12:32.425Z,97438.34
2022-12-24T19:15:00.512Z,97431.16
2022-12-24T19:17:28.674Z,97445.59
2022-12-24T19:19:56.714Z,97445.59
2022-12-24T19:22:26.631Z,97450.97
2022-12-24T19:24:54.679Z,97455.47
2022-12-24T19:27:22.836Z,97457.28
2022-12-24T19:29:52.293Z,97454.47
2022-12-24T19:32:20.429Z,97459.03
2022-12-24T19:34:48.620Z,97459.84
2022-12-24T19:37:16.767Z,97463.53
2022-12-24T19:39:44.831Z,97467.91
2022-12-24T19:42:13.004Z,97479.53
2022-12-24T19:44:41.050Z,97473.28
2022-12-24T19:47:10.598Z,97475.03
2022-12-24T19:49:38.645Z,97472.34
2022-12-24T19:52:06.876Z,97483.00
2022-12-24T19:54:35.068Z,97485.66
2022-12-24T19:57:03.253Z,97497.19
2022-12-24T19:59:31.366Z,97490.94
2022-12-24T20:01:59.647Z,97492.69
2022-12-24T20:04:29.279Z,97493.56
2022-12-24T20:07:00.367Z,97489.03
2022-12-24T20:09:31.557Z,97485.38
2022-12-24T20:11:59.737Z,97483.56
2022-12-24T20:14:27.941Z,97474.53
2022-12-24T20:16:56.230Z,97469.16
2022-12-24T20:19:24.362Z,97471.84
2022-12-24T20:21:53.924Z,97483.56
2022-12-24T20:24:22.043Z,97493.34
2022-12-24T20:26:50.179Z,97488.94
2022-12-24T20:29:18.267Z,97497.84
2022-12-24T20:31:46.452Z,97495.16
2022-12-24T20:34:14.740Z,97499.59
2022-12-24T20:36:43.350Z,97498.59
2022-12-24T20:39:13.278Z,97504.84
2022-12-24T20:41:41.479Z,97506.66
2022-12-24T20:44:10.885Z,97508.41
2022-12-24T20:46:39.053Z,97513.69
2022-12-24T20:49:07.384Z,97510.13
2022-12-24T20:51:35.578Z,97508.41
2022-12-24T20:54:03.695Z,97507.38
2022-12-24T20:56:33.296Z,97514.56
2022-12-24T20:59:01.910Z,97509.19
2022-12-24T21:01:30.426Z,97514.56
2022-12-24T21:04:00.281Z,97512.75
2022-12-24T21:06:28.539Z,97520.81
2022-12-24T21:08:57.002Z,97523.50
2022-12-24T21:11:42.315Z,97532.38
2022-12-24T21:14:11.921Z,97526.94
2022-12-24T21:16:40.213Z,97521.56
2022-12-24T21:19:09.092Z,97522.41
2022-12-24T21:21:37.281Z,97523.28
2022-12-24T21:24:06.160Z,97523.38
2022-12-24T21:26:34.230Z,97525.19
2022-12-24T21:29:04.506Z,97535.00
2022-12-24T21:31:34.073Z,97537.75
2022-12-24T21:34:02.235Z,97538.63
2022-12-24T21:36:30.459Z,97534.25
2022-12-24T21:38:58.585Z,97532.38
2022-12-24T21:41:27.508Z,97545.00
2022-12-24T21:43:55.904Z,97538.75
2022-12-24T21:46:25.431Z,97539.63
2022-12-24T21:49:12.826Z,97534.25
2022-12-24T21:51:41.372Z,97536.94
2022-12-24T21:54:27.303Z,97528.00
2022-12-24T21:57:14.259Z,97529.69
2022-12-24T21:59:43.078Z,97518.13
2022-12-24T22:02:12.245Z,97526.25
2022-12-24T22:04:42.033Z,97521.63
2022-12-24T22:07:39.869Z,97506.50
2022-12-24T22:10:26.755Z,97505.50
2022-12-24T22:12:54.864Z,97500.25
2022-12-24T22:15:23.025Z,97497.44
2022-12-24T22:17:51.251Z,97503.69
2022-12-24T22:20:20.740Z,97504.56
2022-12-24T22:22:49.048Z,97504.69
2022-12-24T22:25:17.311Z,97509.06
2022-12-24T22:27:45.467Z,97510.88
2022-12-24T22:30:13.940Z,97504.69
2022-12-24T22:32:42.083Z,97502.81
2022-12-24T22:35:10.596Z,97507.38
2022-12-24T22:37:40.189Z,97508.19
2022-12-24T22:40:09.880Z,97499.38
2022-12-24T22:42:38.066Z,97507.44
2022-12-24T22:45:07.315Z,97504.75
2022-12-24T22:47:35.379Z,97505.72
2022-12-24T22:50:03.621Z,97515.59
2022-12-24T22:52:32.923Z,97518.28
2022-12-24T22:55:02.723Z,97525.41
2022-12-24T22:57:30.794Z,97522.78
2022-12-24T22:59:58.980Z,97523.66
2022-12-24T23:02:28.847Z,97518.28
2022-12-24T23:04:57.289Z,97529.03
2022-12-24T23:07:25.404Z,97523.78
2022-12-24T23:09:53.530Z,97538.09
2022-12-24T23:12:36.896Z,97538.91
2022-12-24T23:15:05.453Z,97538.91
2022-12-24T23:17:33.563Z,97540.78
2022-12-24T23:20:02.618Z,97525.59
2022-12-24T23:22:30.711Z,97520.22
2022-12-24T23:24:58.780Z,97518.50
2022-12-24T23:27:28.299Z,97521.19
2022-12-24T23:29:56.508Z,97510.44
2022-12-24T23:32:24.579Z,97514.94
2022-12-24T23:34:52.656Z,97508.69
2022-12-24T23:37:20.787Z,97501.63
2022-12-24T23:39:48.886Z,97515.06
2022-12-24T23:42:16.976Z,97516.88
2022-12-24T23:44:46.520Z,97518.69
2022-12-24T23:47:14.898Z,97517.81
2022-12-24T23:49:43.031Z,97526.75
2022-12-24T23:52:11.146Z,97525.88
2022-12-24T23:54:39.274Z,97527.72
2022-12-24T23:57:07.362Z,97531.25
2022-12-24T23:59:35.487Z,97528.66
